sensor_id;sensor_type;location;lat;lon;timestamp;P1;durP1;ratioP1;P2;durP2;ratioP2
4244;SDS011;2136;48.502;9.194;2023-03-23T00:00:14;3.07;;;2.40;;
4244;SDS011;2136;48.502;9.194;2023-03-23T00:02:41;4.03;;;3.63;;
4244;SDS011;2136;48.502;9.194;2023-03-23T00:05:08;6.47;;;2.60;;
4244;SDS011;2136;48.502;9.194;2023-03-23T00:07:36;4.70;;;2.43;;
4244;SDS011;2136;48.502;9.194;2023-03-23T00:10:03;2.70;;;2.50;;
4244;SDS011;2136;48.502;9.194;2023-03-23T00:12:31;4.53;;;3.17;;
4244;SDS011;2136;48.502;9.194;2023-03-23T00:15:00;3.30;;;2.60;;
4244;SDS011;2136;48.502;9.194;2023-03-23T00:17:28;6.07;;;2.50;;
4244;SDS011;2136;48.502;9.194;2023-03-23T00:19:58;6.07;;;2.57;;
4244;SDS011;2136;48.502;9.194;2023-03-23T00:22:26;2.70;;;2.27;;
4244;SDS011;2136;48.502;9.194;2023-03-23T00:24:54;3.57;;;2.60;;
4244;SDS011;2136;48.502;9.194;2023-03-23T00:27:21;5.67;;;2.30;;
4244;SDS011;2136;48.502;9.194;2023-03-23T00:29:48;4.87;;;2.47;;
4244;SDS011;2136;48.502;9.194;2023-03-23T00:32:19;4.67;;;3.00;;
4244;SDS011;2136;48.502;9.194;2023-03-23T00:34:52;4.73;;;2.33;;
4244;SDS011;2136;48.502;9.194;2023-03-23T00:37:19;3.90;;;2.40;;
4244;SDS011;2136;48.502;9.194;2023-03-23T00:39:46;5.17;;;3.13;;
4244;SDS011;2136;48.502;9.194;2023-03-23T00:42:13;4.23;;;3.00;;
4244;SDS011;2136;48.502;9.194;2023-03-23T00:44:41;3.33;;;2.70;;
4244;SDS011;2136;48.502;9.194;2023-03-23T00:47:09;3.00;;;2.33;;
4244;SDS011;2136;48.502;9.194;2023-03-23T00:49:37;2.80;;;2.00;;
4244;SDS011;2136;48.502;9.194;2023-03-23T00:52:06;2.90;;;1.80;;
4244;SDS011;2136;48.502;9.194;2023-03-23T00:54:33;2.07;;;1.90;;
4244;SDS011;2136;48.502;9.194;2023-03-23T00:57:02;2.40;;;1.70;;
4244;SDS011;2136;48.502;9.194;2023-03-23T00:59:30;2.47;;;2.00;;
4244;SDS011;2136;48.502;9.194;2023-03-23T01:01:56;6.03;;;2.50;;
4244;SDS011;2136;48.502;9.194;2023-03-23T01:04:23;2.53;;;2.33;;
4244;SDS011;2136;48.502;9.194;2023-03-23T01:06:54;5.50;;;2.30;;
4244;SDS011;2136;48.502;9.194;2023-03-23T01:09:21;2.70;;;2.13;;
4244;SDS011;2136;48.502;9.194;2023-03-23T01:11:49;3.53;;;2.00;;
4244;SDS011;2136;48.502;9.194;2023-03-23T01:14:18;2.00;;;1.90;;
4244;SDS011;2136;48.502;9.194;2023-03-23T01:16:45;4.67;;;2.43;;
4244;SDS011;2136;48.502;9.194;2023-03-23T01:19:12;3.60;;;2.63;;
4244;SDS011;2136;48.502;9.194;2023-03-23T01:21:40;6.70;;;2.10;;
4244;SDS011;2136;48.502;9.194;2023-03-23T01:24:09;2.50;;;2.30;;
4244;SDS011;2136;48.502;9.194;2023-03-23T01:26:35;5.37;;;2.30;;
4244;SDS011;2136;48.502;9.194;2023-03-23T01:29:02;6.70;;;2.80;;
4244;SDS011;2136;48.502;9.194;2023-03-23T01:31:29;5.37;;;2.60;;
4244;SDS011;2136;48.502;9.194;2023-03-23T01:33:56;2.90;;;2.60;;
4244;SDS011;2136;48.502;9.194;2023-03-23T01:36:24;4.47;;;2.67;;
4244;SDS011;2136;48.502;9.194;2023-03-23T01:38:54;4.30;;;2.37;;
4244;SDS011;2136;48.502;9.194;2023-03-23T01:41:24;4.90;;;2.50;;
4244;SDS011;2136;48.502;9.194;2023-03-23T01:43:55;2.80;;;2.60;;
4244;SDS011;2136;48.502;9.194;2023-03-23T01:46:25;4.63;;;2.97;;
4244;SDS011;2136;48.502;9.194;2023-03-23T01:48:52;5.10;;;3.30;;
4244;SDS011;2136;48.502;9.194;2023-03-23T01:51:23;4.50;;;2.80;;
4244;SDS011;2136;48.502;9.194;2023-03-23T01:53:53;5.47;;;3.30;;
4244;SDS011;2136;48.502;9.194;2023-03-23T01:56:24;3.33;;;3.03;;
4244;SDS011;2136;48.502;9.194;2023-03-23T01:58:54;3.10;;;2.80;;
4244;SDS011;2136;48.502;9.194;2023-03-23T02:01:22;4.40;;;3.87;;
4244;SDS011;2136;48.502;9.194;2023-03-23T02:03:51;3.67;;;2.97;;
4244;SDS011;2136;48.502;9.194;2023-03-23T02:06:20;3.30;;;3.00;;
4244;SDS011;2136;48.502;9.194;2023-03-23T02:08:48;5.43;;;2.73;;
4244;SDS011;2136;48.502;9.194;2023-03-23T02:11:17;3.23;;;2.77;;
4244;SDS011;2136;48.502;9.194;2023-03-23T02:13:46;5.07;;;3.43;;
4244;SDS011;2136;48.502;9.194;2023-03-23T02:16:15;5.43;;;3.03;;
4244;SDS011;2136;48.502;9.194;2023-03-23T02:18:53;2.67;;;2.40;;
4244;SDS011;2136;48.502;9.194;2023-03-23T02:24:40;1.70;;;1.60;;
4244;SDS011;2136;48.502;9.194;2023-03-23T02:27:29;2.80;;;1.50;;
4244;SDS011;2136;48.502;9.194;2023-03-23T02:30:31;2.20;;;1.63;;
4244;SDS011;2136;48.502;9.194;2023-03-23T02:33:19;1.83;;;1.20;;
4244;SDS011;2136;48.502;9.194;2023-03-23T02:36:03;2.40;;;1.13;;
4244;SDS011;2136;48.502;9.194;2023-03-23T02:38:38;2.00;;;1.30;;
4244;SDS011;2136;48.502;9.194;2023-03-23T02:41:09;1.17;;;1.10;;
4244;SDS011;2136;48.502;9.194;2023-03-23T02:43:38;1.57;;;1.40;;
4244;SDS011;2136;48.502;9.194;2023-03-23T02:46:08;1.53;;;1.40;;
4244;SDS011;2136;48.502;9.194;2023-03-23T02:48:38;1.13;;;1.10;;
4244;SDS011;2136;48.502;9.194;2023-03-23T02:51:08;2.13;;;1.20;;
4244;SDS011;2136;48.502;9.194;2023-03-23T02:53:39;1.23;;;1.13;;
4244;SDS011;2136;48.502;9.194;2023-03-23T02:56:08;1.27;;;1.23;;
4244;SDS011;2136;48.502;9.194;2023-03-23T02:58:36;1.03;;;0.90;;
4244;SDS011;2136;48.502;9.194;2023-03-23T03:01:44;2.50;;;1.47;;
4244;SDS011;2136;48.502;9.194;2023-03-23T03:04:19;3.33;;;1.40;;
4244;SDS011;2136;48.502;9.194;2023-03-23T03:06:51;1.27;;;1.00;;
4244;SDS011;2136;48.502;9.194;2023-03-23T03:09:29;3.17;;;1.10;;
4244;SDS011;2136;48.502;9.194;2023-03-23T03:12:04;1.47;;;1.37;;
4244;SDS011;2136;48.502;9.194;2023-03-23T03:14:37;1.23;;;1.13;;
4244;SDS011;2136;48.502;9.194;2023-03-23T03:17:09;2.17;;;1.30;;
4244;SDS011;2136;48.502;9.194;2023-03-23T03:19:41;2.47;;;1.20;;
4244;SDS011;2136;48.502;9.194;2023-03-23T03:22:12;2.07;;;1.27;;
4244;SDS011;2136;48.502;9.194;2023-03-23T03:24:40;0.97;;;0.93;;
4244;SDS011;2136;48.502;9.194;2023-03-23T03:27:10;1.00;;;1.00;;
4244;SDS011;2136;48.502;9.194;2023-03-23T03:29:40;1.80;;;1.33;;
4244;SDS011;2136;48.502;9.194;2023-03-23T03:32:08;2.30;;;1.30;;
4244;SDS011;2136;48.502;9.194;2023-03-23T03:34:38;1.70;;;1.60;;
4244;SDS011;2136;48.502;9.194;2023-03-23T03:37:07;1.40;;;1.30;;
4244;SDS011;2136;48.502;9.194;2023-03-23T03:39:37;1.10;;;1.10;;
4244;SDS011;2136;48.502;9.194;2023-03-23T03:42:04;1.43;;;1.10;;
4244;SDS011;2136;48.502;9.194;2023-03-23T03:44:32;2.90;;;1.63;;
4244;SDS011;2136;48.502;9.194;2023-03-23T03:46:58;0.77;;;0.77;;
4244;SDS011;2136;48.502;9.194;2023-03-23T03:49:26;1.00;;;0.90;;
4244;SDS011;2136;48.502;9.194;2023-03-23T03:51:54;1.10;;;1.10;;
4244;SDS011;2136;48.502;9.194;2023-03-23T03:54:21;1.37;;;1.10;;
4244;SDS011;2136;48.502;9.194;2023-03-23T03:56:48;1.33;;;1.23;;
4244;SDS011;2136;48.502;9.194;2023-03-23T03:59:16;1.43;;;1.07;;
4244;SDS011;2136;48.502;9.194;2023-03-23T04:01:43;0.80;;;0.80;;
4244;SDS011;2136;48.502;9.194;2023-03-23T04:04:10;1.50;;;1.40;;
4244;SDS011;2136;48.502;9.194;2023-03-23T04:06:37;2.80;;;1.33;;
4244;SDS011;2136;48.502;9.194;2023-03-23T04:09:05;1.37;;;1.27;;
4244;SDS011;2136;48.502;9.194;2023-03-23T04:11:32;1.30;;;1.10;;
4244;SDS011;2136;48.502;9.194;2023-03-23T04:13:59;1.83;;;1.23;;
4244;SDS011;2136;48.502;9.194;2023-03-23T04:16:27;2.73;;;1.30;;
4244;SDS011;2136;48.502;9.194;2023-03-23T04:18:54;3.30;;;1.57;;
4244;SDS011;2136;48.502;9.194;2023-03-23T04:21:22;3.33;;;1.37;;
4244;SDS011;2136;48.502;9.194;2023-03-23T04:23:53;1.80;;;1.20;;
4244;SDS011;2136;48.502;9.194;2023-03-23T04:26:22;1.53;;;1.43;;
4244;SDS011;2136;48.502;9.194;2023-03-23T04:28:49;1.30;;;1.00;;
4244;SDS011;2136;48.502;9.194;2023-03-23T04:31:17;1.40;;;1.30;;
4244;SDS011;2136;48.502;9.194;2023-03-23T04:33:43;1.60;;;1.30;;
4244;SDS011;2136;48.502;9.194;2023-03-23T04:36:11;1.40;;;1.30;;
4244;SDS011;2136;48.502;9.194;2023-03-23T04:38:41;1.40;;;1.30;;
4244;SDS011;2136;48.502;9.194;2023-03-23T04:41:08;2.30;;;1.50;;
4244;SDS011;2136;48.502;9.194;2023-03-23T04:43:36;1.30;;;1.20;;
4244;SDS011;2136;48.502;9.194;2023-03-23T04:46:07;2.23;;;1.23;;
4244;SDS011;2136;48.502;9.194;2023-03-23T04:48:34;2.30;;;1.10;;
4244;SDS011;2136;48.502;9.194;2023-03-23T04:51:04;1.30;;;1.20;;
4244;SDS011;2136;48.502;9.194;2023-03-23T04:53:31;3.40;;;1.40;;
4244;SDS011;2136;48.502;9.194;2023-03-23T04:55:58;1.37;;;1.27;;
4244;SDS011;2136;48.502;9.194;2023-03-23T04:58:26;2.13;;;1.20;;
4244;SDS011;2136;48.502;9.194;2023-03-23T05:00:55;1.33;;;1.27;;
4244;SDS011;2136;48.502;9.194;2023-03-23T05:03:22;2.10;;;1.37;;
4244;SDS011;2136;48.502;9.194;2023-03-23T05:05:50;4.23;;;1.20;;
4244;SDS011;2136;48.502;9.194;2023-03-23T05:08:17;2.00;;;1.20;;
4244;SDS011;2136;48.502;9.194;2023-03-23T05:10:49;5.73;;;1.50;;
4244;SDS011;2136;48.502;9.194;2023-03-23T05:13:18;5.27;;;1.33;;
4244;SDS011;2136;48.502;9.194;2023-03-23T05:15:45;1.70;;;1.60;;
4244;SDS011;2136;48.502;9.194;2023-03-23T05:18:13;2.37;;;1.63;;
4244;SDS011;2136;48.502;9.194;2023-03-23T05:20:40;1.47;;;1.37;;
4244;SDS011;2136;48.502;9.194;2023-03-23T05:23:07;1.50;;;1.40;;
4244;SDS011;2136;48.502;9.194;2023-03-23T05:25:35;1.43;;;1.33;;
4244;SDS011;2136;48.502;9.194;2023-03-23T05:28:05;5.73;;;1.43;;
4244;SDS011;2136;48.502;9.194;2023-03-23T05:30:32;1.37;;;1.27;;
4244;SDS011;2136;48.502;9.194;2023-03-23T05:33:01;1.37;;;1.27;;
4244;SDS011;2136;48.502;9.194;2023-03-23T05:35:30;1.60;;;1.47;;
4244;SDS011;2136;48.502;9.194;2023-03-23T05:37:57;1.60;;;1.50;;
4244;SDS011;2136;48.502;9.194;2023-03-23T05:40:24;1.20;;;1.10;;
4244;SDS011;2136;48.502;9.194;2023-03-23T05:42:52;6.17;;;1.43;;
4244;SDS011;2136;48.502;9.194;2023-03-23T05:45:20;2.90;;;1.70;;
4244;SDS011;2136;48.502;9.194;2023-03-23T05:47:48;2.10;;;1.10;;
4244;SDS011;2136;48.502;9.194;2023-03-23T05:50:15;2.30;;;1.50;;
4244;SDS011;2136;48.502;9.194;2023-03-23T05:52:44;7.33;;;1.90;;
4244;SDS011;2136;48.502;9.194;2023-03-23T05:55:10;1.77;;;1.67;;
4244;SDS011;2136;48.502;9.194;2023-03-23T05:57:38;10.87;;;1.30;;
4244;SDS011;2136;48.502;9.194;2023-03-23T06:00:05;4.90;;;1.37;;
4244;SDS011;2136;48.502;9.194;2023-03-23T06:02:44;1.60;;;1.40;;
4244;SDS011;2136;48.502;9.194;2023-03-23T06:05:11;1.40;;;1.30;;
4244;SDS011;2136;48.502;9.194;2023-03-23T06:07:38;2.43;;;1.90;;
4244;SDS011;2136;48.502;9.194;2023-03-23T06:10:07;7.70;;;3.90;;
4244;SDS011;2136;48.502;9.194;2023-03-23T06:12:35;2.43;;;1.87;;
4244;SDS011;2136;48.502;9.194;2023-03-23T06:15:02;2.23;;;1.57;;
4244;SDS011;2136;48.502;9.194;2023-03-23T06:17:31;5.30;;;1.70;;
4244;SDS011;2136;48.502;9.194;2023-03-23T06:19:58;4.47;;;1.60;;
4244;SDS011;2136;48.502;9.194;2023-03-23T06:22:25;1.83;;;1.40;;
4244;SDS011;2136;48.502;9.194;2023-03-23T06:24:53;1.77;;;1.60;;
4244;SDS011;2136;48.502;9.194;2023-03-23T06:27:23;1.77;;;1.40;;
4244;SDS011;2136;48.502;9.194;2023-03-23T06:29:50;3.23;;;1.70;;
4244;SDS011;2136;48.502;9.194;2023-03-23T06:32:17;2.80;;;1.80;;
4244;SDS011;2136;48.502;9.194;2023-03-23T06:34:44;2.87;;;1.40;;
4244;SDS011;2136;48.502;9.194;2023-03-23T06:37:12;2.37;;;2.23;;
4244;SDS011;2136;48.502;9.194;2023-03-23T06:39:40;6.70;;;1.50;;
4244;SDS011;2136;48.502;9.194;2023-03-23T06:42:08;4.40;;;1.90;;
4244;SDS011;2136;48.502;9.194;2023-03-23T06:44:38;2.70;;;1.90;;
4244;SDS011;2136;48.502;9.194;2023-03-23T06:47:05;3.63;;;1.43;;
4244;SDS011;2136;48.502;9.194;2023-03-23T06:49:32;1.30;;;1.20;;
4244;SDS011;2136;48.502;9.194;2023-03-23T06:51:59;4.10;;;2.90;;
4244;SDS011;2136;48.502;9.194;2023-03-23T06:54:26;2.30;;;1.50;;
4244;SDS011;2136;48.502;9.194;2023-03-23T06:56:53;2.23;;;1.80;;
4244;SDS011;2136;48.502;9.194;2023-03-23T06:59:20;2.03;;;1.90;;
4244;SDS011;2136;48.502;9.194;2023-03-23T07:01:49;2.40;;;2.20;;
4244;SDS011;2136;48.502;9.194;2023-03-23T07:04:15;3.57;;;1.63;;
4244;SDS011;2136;48.502;9.194;2023-03-23T07:06:42;3.30;;;1.37;;
4244;SDS011;2136;48.502;9.194;2023-03-23T07:09:09;2.03;;;1.87;;
4244;SDS011;2136;48.502;9.194;2023-03-23T07:11:36;3.30;;;1.60;;
4244;SDS011;2136;48.502;9.194;2023-03-23T07:14:03;1.60;;;1.50;;
4244;SDS011;2136;48.502;9.194;2023-03-23T07:16:30;2.60;;;1.83;;
4244;SDS011;2136;48.502;9.194;2023-03-23T07:18:58;8.13;;;2.10;;
4244;SDS011;2136;48.502;9.194;2023-03-23T07:21:25;2.00;;;1.70;;
4244;SDS011;2136;48.502;9.194;2023-03-23T07:23:52;1.90;;;1.80;;
4244;SDS011;2136;48.502;9.194;2023-03-23T07:26:19;1.73;;;1.63;;
4244;SDS011;2136;48.502;9.194;2023-03-23T07:28:46;2.50;;;2.00;;
4244;SDS011;2136;48.502;9.194;2023-03-23T07:31:13;3.17;;;2.13;;
4244;SDS011;2136;48.502;9.194;2023-03-23T07:33:41;2.17;;;1.60;;
4244;SDS011;2136;48.502;9.194;2023-03-23T07:36:10;2.90;;;1.70;;
4244;SDS011;2136;48.502;9.194;2023-03-23T07:38:37;3.50;;;1.63;;
4244;SDS011;2136;48.502;9.194;2023-03-23T07:41:05;2.23;;;2.03;;
4244;SDS011;2136;48.502;9.194;2023-03-23T07:43:32;3.47;;;1.70;;
4244;SDS011;2136;48.502;9.194;2023-03-23T07:45:59;2.03;;;1.70;;
4244;SDS011;2136;48.502;9.194;2023-03-23T07:48:26;1.87;;;1.77;;
4244;SDS011;2136;48.502;9.194;2023-03-23T07:50:53;2.23;;;1.80;;
4244;SDS011;2136;48.502;9.194;2023-03-23T07:53:21;1.73;;;1.63;;
4244;SDS011;2136;48.502;9.194;2023-03-23T07:55:49;5.33;;;2.23;;
4244;SDS011;2136;48.502;9.194;2023-03-23T07:58:16;2.30;;;1.70;;
4244;SDS011;2136;48.502;9.194;2023-03-23T08:00:44;2.03;;;1.83;;
4244;SDS011;2136;48.502;9.194;2023-03-23T08:03:13;2.40;;;1.70;;
4244;SDS011;2136;48.502;9.194;2023-03-23T08:05:40;2.47;;;1.27;;
4244;SDS011;2136;48.502;9.194;2023-03-23T08:08:08;4.87;;;1.63;;
4244;SDS011;2136;48.502;9.194;2023-03-23T08:10:36;1.90;;;1.70;;
4244;SDS011;2136;48.502;9.194;2023-03-23T08:13:04;2.97;;;1.87;;
4244;SDS011;2136;48.502;9.194;2023-03-23T08:15:32;2.20;;;2.00;;
4244;SDS011;2136;48.502;9.194;2023-03-23T08:18:02;2.03;;;1.80;;
4244;SDS011;2136;48.502;9.194;2023-03-23T08:20:29;1.70;;;1.60;;
4244;SDS011;2136;48.502;9.194;2023-03-23T08:22:57;3.53;;;1.80;;
4244;SDS011;2136;48.502;9.194;2023-03-23T08:25:25;2.27;;;1.53;;
4244;SDS011;2136;48.502;9.194;2023-03-23T08:27:53;1.83;;;1.70;;
4244;SDS011;2136;48.502;9.194;2023-03-23T08:30:20;1.50;;;1.40;;
4244;SDS011;2136;48.502;9.194;2023-03-23T08:32:49;1.50;;;1.40;;
4244;SDS011;2136;48.502;9.194;2023-03-23T08:35:17;5.73;;;2.00;;
4244;SDS011;2136;48.502;9.194;2023-03-23T08:37:45;4.33;;;1.70;;
4244;SDS011;2136;48.502;9.194;2023-03-23T08:40:16;1.47;;;1.37;;
4244;SDS011;2136;48.502;9.194;2023-03-23T08:42:44;1.67;;;1.57;;
4244;SDS011;2136;48.502;9.194;2023-03-23T08:45:16;7.30;;;1.60;;
4244;SDS011;2136;48.502;9.194;2023-03-23T08:47:44;2.30;;;1.40;;
4244;SDS011;2136;48.502;9.194;2023-03-23T08:50:15;2.40;;;1.30;;
4244;SDS011;2136;48.502;9.194;2023-03-23T08:52:43;2.13;;;1.40;;
4244;SDS011;2136;48.502;9.194;2023-03-23T08:55:10;1.97;;;1.80;;
4244;SDS011;2136;48.502;9.194;2023-03-23T08:57:37;1.20;;;1.20;;
4244;SDS011;2136;48.502;9.194;2023-03-23T09:00:06;1.40;;;1.30;;
4244;SDS011;2136;48.502;9.194;2023-03-23T09:02:43;1.43;;;1.30;;
4244;SDS011;2136;48.502;9.194;2023-03-23T09:05:10;1.67;;;1.57;;
4244;SDS011;2136;48.502;9.194;2023-03-23T09:07:37;1.47;;;1.37;;
4244;SDS011;2136;48.502;9.194;2023-03-23T09:10:05;2.17;;;1.60;;
4244;SDS011;2136;48.502;9.194;2023-03-23T09:12:33;3.70;;;1.40;;
4244;SDS011;2136;48.502;9.194;2023-03-23T09:15:01;1.30;;;1.20;;
4244;SDS011;2136;48.502;9.194;2023-03-23T09:17:33;1.30;;;1.20;;
4244;SDS011;2136;48.502;9.194;2023-03-23T09:20:01;1.60;;;1.33;;
4244;SDS011;2136;48.502;9.194;2023-03-23T09:22:32;1.87;;;1.30;;
4244;SDS011;2136;48.502;9.194;2023-03-23T09:24:59;1.40;;;1.23;;
4244;SDS011;2136;48.502;9.194;2023-03-23T09:27:26;1.50;;;1.40;;
4244;SDS011;2136;48.502;9.194;2023-03-23T09:29:53;4.53;;;1.50;;
4244;SDS011;2136;48.502;9.194;2023-03-23T09:32:20;2.80;;;1.30;;
4244;SDS011;2136;48.502;9.194;2023-03-23T09:34:47;1.47;;;1.07;;
4244;SDS011;2136;48.502;9.194;2023-03-23T09:37:15;1.87;;;1.47;;
4244;SDS011;2136;48.502;9.194;2023-03-23T09:39:42;1.43;;;1.33;;
4244;SDS011;2136;48.502;9.194;2023-03-23T09:42:16;2.83;;;1.73;;
4244;SDS011;2136;48.502;9.194;2023-03-23T09:44:57;1.60;;;1.40;;
4244;SDS011;2136;48.502;9.194;2023-03-23T09:47:32;1.53;;;1.43;;
4244;SDS011;2136;48.502;9.194;2023-03-23T09:50:07;1.80;;;1.23;;
4244;SDS011;2136;48.502;9.194;2023-03-23T09:52:39;1.03;;;1.03;;
4244;SDS011;2136;48.502;9.194;2023-03-23T09:55:11;3.67;;;1.67;;
4244;SDS011;2136;48.502;9.194;2023-03-23T09:57:43;1.57;;;1.40;;
4244;SDS011;2136;48.502;9.194;2023-03-23T10:00:16;4.20;;;1.60;;
4244;SDS011;2136;48.502;9.194;2023-03-23T10:02:51;1.37;;;1.30;;
4244;SDS011;2136;48.502;9.194;2023-03-23T10:05:26;1.30;;;1.20;;
4244;SDS011;2136;48.502;9.194;2023-03-23T10:07:58;1.57;;;1.40;;
4244;SDS011;2136;48.502;9.194;2023-03-23T10:10:29;1.87;;;1.47;;
4244;SDS011;2136;48.502;9.194;2023-03-23T10:13:04;1.47;;;1.37;;
4244;SDS011;2136;48.502;9.194;2023-03-23T10:15:38;2.50;;;1.40;;
4244;SDS011;2136;48.502;9.194;2023-03-23T10:18:08;2.73;;;1.47;;
4244;SDS011;2136;48.502;9.194;2023-03-23T10:20:42;2.20;;;1.57;;
4244;SDS011;2136;48.502;9.194;2023-03-23T10:23:20;2.00;;;1.37;;
4244;SDS011;2136;48.502;9.194;2023-03-23T10:26:04;5.33;;;0.90;;
4244;SDS011;2136;48.502;9.194;2023-03-23T10:28:37;2.47;;;1.40;;
4244;SDS011;2136;48.502;9.194;2023-03-23T10:31:08;1.50;;;1.40;;
4244;SDS011;2136;48.502;9.194;2023-03-23T10:33:40;3.27;;;1.40;;
4244;SDS011;2136;48.502;9.194;2023-03-23T10:36:10;1.83;;;1.30;;
4244;SDS011;2136;48.502;9.194;2023-03-23T10:38:44;1.50;;;1.40;;
4244;SDS011;2136;48.502;9.194;2023-03-23T10:41:13;2.00;;;1.30;;
4244;SDS011;2136;48.502;9.194;2023-03-23T10:43:41;1.40;;;1.30;;
4244;SDS011;2136;48.502;9.194;2023-03-23T10:46:17;1.60;;;1.40;;
4244;SDS011;2136;48.502;9.194;2023-03-23T10:48:51;2.57;;;1.73;;
4244;SDS011;2136;48.502;9.194;2023-03-23T10:51:23;2.43;;;1.33;;
4244;SDS011;2136;48.502;9.194;2023-03-23T10:53:58;1.30;;;1.20;;
4244;SDS011;2136;48.502;9.194;2023-03-23T10:56:27;3.30;;;1.63;;
4244;SDS011;2136;48.502;9.194;2023-03-23T10:59:10;1.57;;;1.17;;
4244;SDS011;2136;48.502;9.194;2023-03-23T11:01:38;3.70;;;1.40;;
4244;SDS011;2136;48.502;9.194;2023-03-23T11:04:10;2.93;;;1.47;;
4244;SDS011;2136;48.502;9.194;2023-03-23T11:06:42;2.53;;;1.23;;
4244;SDS011;2136;48.502;9.194;2023-03-23T11:09:13;1.60;;;1.40;;
4244;SDS011;2136;48.502;9.194;2023-03-23T11:11:43;1.70;;;1.20;;
4244;SDS011;2136;48.502;9.194;2023-03-23T11:14:15;6.53;;;1.47;;
4244;SDS011;2136;48.502;9.194;2023-03-23T11:16:45;1.73;;;1.50;;
4244;SDS011;2136;48.502;9.194;2023-03-23T11:19:22;1.57;;;1.47;;
4244;SDS011;2136;48.502;9.194;2023-03-23T11:21:51;2.03;;;1.40;;
4244;SDS011;2136;48.502;9.194;2023-03-23T11:24:22;1.67;;;1.23;;
4244;SDS011;2136;48.502;9.194;2023-03-23T11:26:51;2.10;;;1.40;;
4244;SDS011;2136;48.502;9.194;2023-03-23T11:29:19;2.73;;;1.50;;
4244;SDS011;2136;48.502;9.194;2023-03-23T11:31:49;1.47;;;1.37;;
4244;SDS011;2136;48.502;9.194;2023-03-23T11:34:19;1.53;;;1.20;;
4244;SDS011;2136;48.502;9.194;2023-03-23T11:36:48;1.27;;;1.20;;
4244;SDS011;2136;48.502;9.194;2023-03-23T11:39:20;1.57;;;1.47;;
4244;SDS011;2136;48.502;9.194;2023-03-23T11:41:50;1.57;;;1.40;;
4244;SDS011;2136;48.502;9.194;2023-03-23T11:44:17;1.53;;;1.43;;
4244;SDS011;2136;48.502;9.194;2023-03-23T11:46:47;1.67;;;1.47;;
4244;SDS011;2136;48.502;9.194;2023-03-23T11:49:25;2.13;;;1.40;;
4244;SDS011;2136;48.502;9.194;2023-03-23T11:52:00;1.97;;;1.37;;
4244;SDS011;2136;48.502;9.194;2023-03-23T11:54:33;1.47;;;1.37;;
4244;SDS011;2136;48.502;9.194;2023-03-23T11:57:06;1.67;;;1.57;;
4244;SDS011;2136;48.502;9.194;2023-03-23T11:59:35;1.73;;;1.50;;
4244;SDS011;2136;48.502;9.194;2023-03-23T12:02:09;1.40;;;1.30;;
4244;SDS011;2136;48.502;9.194;2023-03-23T12:05:07;1.13;;;1.03;;
4244;SDS011;2136;48.502;9.194;2023-03-23T12:07:52;2.30;;;1.57;;
4244;SDS011;2136;48.502;9.194;2023-03-23T12:10:30;1.77;;;1.50;;
4244;SDS011;2136;48.502;9.194;2023-03-23T12:13:05;5.13;;;1.57;;
4244;SDS011;2136;48.502;9.194;2023-03-23T12:15:45;3.00;;;1.50;;
4244;SDS011;2136;48.502;9.194;2023-03-23T12:18:22;2.20;;;1.50;;
4244;SDS011;2136;48.502;9.194;2023-03-23T12:20:59;2.00;;;1.50;;
4244;SDS011;2136;48.502;9.194;2023-03-23T12:23:40;1.90;;;1.37;;
4244;SDS011;2136;48.502;9.194;2023-03-23T12:26:17;1.33;;;1.23;;
4244;SDS011;2136;48.502;9.194;2023-03-23T12:29:04;1.70;;;1.30;;
4244;SDS011;2136;48.502;9.194;2023-03-23T12:32:02;2.53;;;1.30;;
4244;SDS011;2136;48.502;9.194;2023-03-23T12:34:47;1.83;;;1.30;;
4244;SDS011;2136;48.502;9.194;2023-03-23T12:37:29;1.40;;;1.30;;
4244;SDS011;2136;48.502;9.194;2023-03-23T12:40:12;1.50;;;1.40;;
4244;SDS011;2136;48.502;9.194;2023-03-23T12:42:52;1.53;;;1.30;;
4244;SDS011;2136;48.502;9.194;2023-03-23T12:45:25;5.23;;;1.73;;
4244;SDS011;2136;48.502;9.194;2023-03-23T12:48:05;1.87;;;1.53;;
4244;SDS011;2136;48.502;9.194;2023-03-23T12:50:35;1.50;;;1.40;;
4244;SDS011;2136;48.502;9.194;2023-03-23T12:53:08;4.03;;;1.70;;
4244;SDS011;2136;48.502;9.194;2023-03-23T12:55:42;1.60;;;1.50;;
4244;SDS011;2136;48.502;9.194;2023-03-23T12:58:17;2.37;;;1.13;;
4244;SDS011;2136;48.502;9.194;2023-03-23T13:00:52;4.37;;;1.70;;
4244;SDS011;2136;48.502;9.194;2023-03-23T13:03:23;1.67;;;1.50;;
4244;SDS011;2136;48.502;9.194;2023-03-23T13:05:56;1.60;;;1.50;;
4244;SDS011;2136;48.502;9.194;2023-03-23T13:08:27;2.00;;;1.47;;
4244;SDS011;2136;48.502;9.194;2023-03-23T13:10:59;1.70;;;1.60;;
4244;SDS011;2136;48.502;9.194;2023-03-23T13:13:41;2.03;;;1.83;;
4244;SDS011;2136;48.502;9.194;2023-03-23T13:16:14;1.97;;;1.70;;
4244;SDS011;2136;48.502;9.194;2023-03-23T13:18:48;2.63;;;1.60;;
4244;SDS011;2136;48.502;9.194;2023-03-23T13:21:24;1.60;;;1.50;;
4244;SDS011;2136;48.502;9.194;2023-03-23T13:23:54;1.93;;;1.57;;
4244;SDS011;2136;48.502;9.194;2023-03-23T13:26:24;2.13;;;1.53;;
4244;SDS011;2136;48.502;9.194;2023-03-23T13:28:55;3.67;;;1.57;;
4244;SDS011;2136;48.502;9.194;2023-03-23T13:31:25;1.23;;;1.20;;
4244;SDS011;2136;48.502;9.194;2023-03-23T13:33:59;2.80;;;1.63;;
4244;SDS011;2136;48.502;9.194;2023-03-23T13:36:29;1.40;;;1.30;;
4244;SDS011;2136;48.502;9.194;2023-03-23T13:38:59;1.93;;;1.67;;
4244;SDS011;2136;48.502;9.194;2023-03-23T13:41:29;2.07;;;1.50;;
4244;SDS011;2136;48.502;9.194;2023-03-23T13:44:16;3.37;;;1.47;;
4244;SDS011;2136;48.502;9.194;2023-03-23T13:46:56;2.50;;;2.30;;
4244;SDS011;2136;48.502;9.194;2023-03-23T13:49:32;3.53;;;1.87;;
4244;SDS011;2136;48.502;9.194;2023-03-23T13:52:00;1.73;;;1.53;;
4244;SDS011;2136;48.502;9.194;2023-03-23T13:54:40;1.43;;;1.33;;
4244;SDS011;2136;48.502;9.194;2023-03-23T13:57:25;1.50;;;1.40;;
4244;SDS011;2136;48.502;9.194;2023-03-23T14:00:09;2.47;;;1.77;;
4244;SDS011;2136;48.502;9.194;2023-03-23T14:02:51;1.73;;;1.63;;
4244;SDS011;2136;48.502;9.194;2023-03-23T14:05:29;2.43;;;2.17;;
4244;SDS011;2136;48.502;9.194;2023-03-23T14:08:00;2.07;;;1.90;;
4244;SDS011;2136;48.502;9.194;2023-03-23T14:10:34;1.70;;;1.60;;
4244;SDS011;2136;48.502;9.194;2023-03-23T14:13:03;1.60;;;1.50;;
4244;SDS011;2136;48.502;9.194;2023-03-23T14:15:43;3.83;;;1.90;;
4244;SDS011;2136;48.502;9.194;2023-03-23T14:18:13;5.10;;;1.90;;
4244;SDS011;2136;48.502;9.194;2023-03-23T14:20:42;6.53;;;2.23;;
4244;SDS011;2136;48.502;9.194;2023-03-23T14:23:14;2.20;;;1.80;;
4244;SDS011;2136;48.502;9.194;2023-03-23T14:25:42;1.97;;;1.80;;
4244;SDS011;2136;48.502;9.194;2023-03-23T14:28:19;3.17;;;1.53;;
4244;SDS011;2136;48.502;9.194;2023-03-23T14:30:48;1.80;;;1.70;;
4244;SDS011;2136;48.502;9.194;2023-03-23T14:33:18;1.83;;;1.67;;
4244;SDS011;2136;48.502;9.194;2023-03-23T14:35:46;2.50;;;1.67;;
4244;SDS011;2136;48.502;9.194;2023-03-23T14:38:15;3.00;;;2.77;;
4244;SDS011;2136;48.502;9.194;2023-03-23T14:40:45;1.77;;;1.67;;
4244;SDS011;2136;48.502;9.194;2023-03-23T14:43:14;6.03;;;2.10;;
4244;SDS011;2136;48.502;9.194;2023-03-23T14:45:43;1.80;;;1.53;;
4244;SDS011;2136;48.502;9.194;2023-03-23T14:48:13;5.13;;;1.80;;
4244;SDS011;2136;48.502;9.194;2023-03-23T14:50:42;2.20;;;2.00;;
4244;SDS011;2136;48.502;9.194;2023-03-23T14:53:16;7.73;;;2.60;;
4244;SDS011;2136;48.502;9.194;2023-03-23T14:55:46;2.13;;;1.90;;
4244;SDS011;2136;48.502;9.194;2023-03-23T14:58:15;2.07;;;1.90;;
4244;SDS011;2136;48.502;9.194;2023-03-23T15:00:45;3.03;;;2.00;;
4244;SDS011;2136;48.502;9.194;2023-03-23T15:03:17;4.80;;;2.00;;
4244;SDS011;2136;48.502;9.194;2023-03-23T15:05:46;4.83;;;1.73;;
4244;SDS011;2136;48.502;9.194;2023-03-23T15:08:18;4.80;;;1.77;;
4244;SDS011;2136;48.502;9.194;2023-03-23T15:10:51;2.07;;;1.97;;
4244;SDS011;2136;48.502;9.194;2023-03-23T15:13:20;2.27;;;2.13;;
4244;SDS011;2136;48.502;9.194;2023-03-23T15:15:47;3.17;;;2.23;;
4244;SDS011;2136;48.502;9.194;2023-03-23T15:18:23;2.17;;;1.97;;
4244;SDS011;2136;48.502;9.194;2023-03-23T15:20:56;1.73;;;1.47;;
4244;SDS011;2136;48.502;9.194;2023-03-23T15:23:26;2.20;;;1.73;;
4244;SDS011;2136;48.502;9.194;2023-03-23T15:25:54;2.80;;;1.77;;
4244;SDS011;2136;48.502;9.194;2023-03-23T15:28:27;7.00;;;2.10;;
4244;SDS011;2136;48.502;9.194;2023-03-23T15:30:55;2.37;;;2.17;;
4244;SDS011;2136;48.502;9.194;2023-03-23T15:33:27;2.40;;;1.93;;
4244;SDS011;2136;48.502;9.194;2023-03-23T15:36:04;4.10;;;3.70;;
4244;SDS011;2136;48.502;9.194;2023-03-23T15:38:33;1.97;;;1.80;;